Time;durP1;ratioP1;P1;durP2;ratioP2;P2;SDS_P1;SDS_P2;PMS_P1;PMS_P2;Temp;Humidity;BMP_temperature;BMP_pressure;BME280_temperature;BME280_humidity;BME280_pressure;Samples;Min_cycle;Max_cycle;Signal;HPM_P1;HPM_P2
2023/02/28 00:13:48;;;;;;;108.00;38.50;;;;;;;0.11;64.71;101898.66;676420;1260;139097;-85
2023/02/28 00:28:52;;;;;;;110.60;36.10;;;;;;;-0.10;64.73;101901.79;672571;1258;140440;-83
2023/02/28 00:43:56;;;;;;;129.10;40.80;;;;;;;-0.22;65.10;101905.44;672209;1260;140284;-84
2023/02/28 00:58:59;;;;;;;72.90;25.70;;;;;;;-0.28;65.34;101903.30;671441;1261;140265;-85
2023/02/28 01:14:03;;;;;;;114.60;34.10;;;;;;;-0.45;65.34;101897.90;674210;1257;139447;-84
2023/02/28 01:29:07;;;;;;;105.50;33.60;;;;;;;-0.50;65.46;101899.36;669754;1260;139672;-84
2023/02/28 01:44:48;;;;;;;157.30;53.70;;;;;;;-0.74;65.37;101911.94;672830;1260;140239;-84
2023/02/28 01:59:59;;;;;;;68.90;23.30;;;;;;;-0.83;65.62;101902.95;672949;1256;139961;-84
2023/02/28 02:15:16;;;;;;;202.70;64.00;;;;;;;-0.92;66.00;101910.98;672288;1260;139441;-84
2023/02/28 02:30:57;;;;;;;205.60;71.50;;;;;;;-1.08;65.66;101910.50;672546;1260;140414;-83
2023/02/28 02:46:24;;;;;;;182.00;67.80;;;;;;;-1.23;65.88;101913.45;671366;1257;139911;-83
2023/02/28 03:01:30;;;;;;;192.20;64.50;;;;;;;-1.27;65.99;101921.23;671906;1258;139602;-84
2023/02/28 03:16:42;;;;;;;184.90;57.60;;;;;;;-1.43;65.71;101916.80;673300;1257;139469;-84
2023/02/28 03:31:55;;;;;;;75.70;27.50;;;;;;;-1.49;65.61;101924.06;672524;1261;139561;-84
2023/02/28 03:47:02;;;;;;;56.80;23.00;;;;;;;-1.60;65.98;101923.50;675059;1260;140019;-83
2023/02/28 04:02:05;;;;;;;69.90;29.70;;;;;;;-1.71;66.51;101923.80;672905;1261;140165;-82
2023/02/28 04:17:09;;;;;;;61.50;24.60;;;;;;;-1.65;66.60;101932.31;674252;1257;139498;-82
2023/02/28 04:32:12;;;;;;;70.50;29.00;;;;;;;-1.76;66.32;101945.48;671302;1261;139709;-83
2023/02/28 04:47:16;;;;;;;67.80;27.20;;;;;;;-1.84;66.16;101948.98;672076;1260;139892;-85
2023/02/28 05:02:20;;;;;;;59.40;24.30;;;;;;;-1.91;66.23;101944.41;675591;1261;139664;-81
2023/02/28 05:17:24;;;;;;;117.80;43.10;;;;;;;-1.93;66.73;101943.40;673810;1260;139852;-82
2023/02/28 05:32:30;;;;;;;153.00;60.20;;;;;;;-2.04;66.56;101931.34;673097;1261;139584;-79
2023/02/28 05:47:34;;;;;;;148.40;58.30;;;;;;;-2.11;66.94;101927.45;674218;1272;139724;-80
2023/02/28 06:02:40;;;;;;;137.30;56.30;;;;;;;-2.02;67.21;101930.44;670905;1273;139064;-81
2023/02/28 06:17:44;;;;;;;170.70;70.70;;;;;;;-1.97;66.87;101951.67;669500;1257;140173;-80
2023/02/28 06:32:49;;;;;;;253.20;109.70;;;;;;;-1.72;67.20;101968.59;673652;1262;139719;-81
2023/02/28 06:47:52;;;;;;;299.10;120.10;;;;;;;-0.97;67.77;101987.14;674965;1263;140444;-82
2023/02/28 07:02:56;;;;;;;330.70;136.40;;;;;;;0.39;68.16;102006.21;671300;1261;139982;-81
2023/02/28 07:17:59;;;;;;;416.10;160.10;;;;;;;1.57;67.64;102013.84;669971;1261;139828;-82
2023/02/28 07:33:03;;;;;;;188.60;82.40;;;;;;;2.50;67.21;102002.76;671748;1262;139814;-83
2023/02/28 07:48:09;;;;;;;236.40;99.50;;;;;;;3.39;67.44;102006.79;672803;1260;139510;-82
2023/02/28 08:03:13;;;;;;;147.00;65.80;;;;;;;4.52;66.94;102002.45;672053;1262;139026;-81
2023/02/28 08:18:19;;;;;;;105.60;48.70;;;;;;;5.66;66.39;101982.56;674212;1263;139017;-82
2023/02/28 08:33:24;;;;;;;69.00;32.00;;;;;;;6.17;64.97;101968.17;672344;1259;139431;-82
2023/02/28 08:48:30;;;;;;;49.60;22.70;;;;;;;7.10;64.12;101971.88;671437;1262;149768;-82
2023/02/28 09:03:33;;;;;;;45.50;23.30;;;;;;;7.83;62.10;101959.02;674349;1262;139332;-84
2023/02/28 09:18:38;;;;;;;32.70;13.90;;;;;;;8.43;60.64;101963.46;673706;1262;139694;-83
2023/02/28 09:33:42;;;;;;;10.60;4.70;;;;;;;8.87;58.26;101972.52;676029;1262;139129;-86
2023/02/28 09:48:48;;;;;;;7.80;5.00;;;;;;;9.00;56.00;101985.40;679996;1263;139169;-86
2023/02/28 10:04:03;;;;;;;26.60;12.50;;;;;;;9.35;53.98;101978.77;674445;1262;138351;-86
2023/02/28 10:19:32;;;;;;;19.00;9.30;;;;;;;9.62;52.41;101963.79;674713;1267;138822;-84
2023/02/28 10:34:35;;;;;;;16.20;8.80;;;;;;;9.92;51.69;101948.95;675941;1262;138493;-85
2023/02/28 10:49:47;;;;;;;14.40;7.60;;;;;;;10.36;51.04;101934.67;671133;1263;138754;-84
2023/02/28 11:04:51;;;;;;;15.50;8.00;;;;;;;10.80;49.93;101934.44;671506;1262;138293;-86
2023/02/28 11:20:03;;;;;;;12.80;7.10;;;;;;;11.56;49.28;101924.48;671892;1264;138038;-87
2023/02/28 11:35:09;;;;;;;10.80;5.70;;;;;;;11.97;47.68;101911.27;675885;1262;139663;-87
2023/02/28 11:50:47;;;;;;;12.80;5.80;;;;;;;12.14;46.67;101907.96;672062;1262;138096;-89
2023/02/28 12:06:13;;;;;;;16.00;6.40;;;;;;;12.84;46.34;101903.63;674990;1263;138073;-89
2023/02/28 12:22:10;;;;;;;13.80;6.90;;;;;;;12.31;44.24;101886.29;679007;1262;138507;-91
2023/02/28 12:37:22;;;;;;;45.70;23.20;;;;;;;12.84;43.09;101866.06;674059;1263;137567;-89
2023/02/28 12:52:35;;;;;;;31.10;15.50;;;;;;;13.14;43.33;101835.92;671442;1263;138843;-88
2023/02/28 13:08:16;;;;;;;13.00;7.90;;;;;;;13.85;43.31;101826.40;670383;1257;137989;-86
2023/02/28 13:23:40;;;;;;;25.80;11.70;;;;;;;14.32;43.44;101823.86;670328;1261;138819;-87
2023/02/28 13:38:53;;;;;;;42.40;22.20;;;;;;;14.68;42.70;101802.61;670951;1262;138537;-87
2023/02/28 13:54:20;;;;;;;16.30;10.50;;;;;;;19.73;40.16;101787.90;670921;1263;139510;-89
2023/02/28 14:09:38;;;;;;;94.00;45.90;;;;;;;25.68;35.07;101782.70;670380;1262;138500;-89
2023/02/28 14:24:41;;;;;;;15.40;9.50;;;;;;;25.53;31.21;101768.88;671004;1263;138489;-89
2023/02/28 14:39:45;;;;;;;17.80;11.20;;;;;;;26.28;31.43;101764.73;670908;1263;138582;-87
2023/02/28 14:54:55;;;;;;;25.30;13.80;;;;;;;25.87;30.73;101753.48;670666;1262;138739;-88
2023/02/28 15:10:21;;;;;;;262.20;139.80;;;;;;;25.47;32.12;101754.19;669620;1263;138794;-89
2023/02/28 15:25:25;;;;;;;62.40;38.40;;;;;;;19.06;33.63;101736.81;669923;1263;138970;-87
2023/02/28 15:40:42;;;;;;;44.90;25.60;;;;;;;15.02;37.43;101733.07;672567;1263;138448;-89
2023/02/28 15:55:53;;;;;;;120.80;56.00;;;;;;;19.23;36.84;101734.60;671868;1272;138727;-86
2023/02/28 16:10:56;;;;;;;27.40;13.70;;;;;;;18.54;36.14;101737.27;671265;1262;139045;-87
2023/02/28 16:26:00;;;;;;;265.50;117.00;;;;;;;13.53;39.12;101724.27;671681;1271;138594;-86
2023/02/28 16:41:06;;;;;;;548.00;241.10;;;;;;;10.28;42.41;101734.80;674834;1263;139222;-85
2023/02/28 16:56:18;;;;;;;582.70;223.20;;;;;;;8.29;44.70;101717.84;673099;1262;138810;-86
2023/02/28 17:11:24;;;;;;;129.90;51.40;;;;;;;7.25;46.74;101705.42;670995;1263;139115;-85
2023/02/28 17:26:29;;;;;;;136.20;53.30;;;;;;;6.63;48.27;101695.31;672701;1264;138412;-85
2023/02/28 17:41:41;;;;;;;329.00;132.70;;;;;;;6.23;49.43;101704.52;670505;1263;139154;-85
2023/02/28 17:56:46;;;;;;;87.60;37.00;;;;;;;5.86;50.07;101701.33;671051;1264;139640;-86
2023/02/28 18:11:51;;;;;;;154.20;61.30;;;;;;;5.14;51.59;101685.59;671463;1263;138470;-84
2023/02/28 18:26:55;;;;;;;126.00;53.00;;;;;;;5.08;52.52;101701.77;671563;1269;138582;-84
2023/02/28 18:41:59;;;;;;;147.60;56.60;;;;;;;4.95;52.87;101699.06;671575;1261;138372;-84
2023/02/28 18:57:04;;;;;;;74.20;32.80;;;;;;;4.68;53.22;101695.45;672251;1261;138594;-84
2023/02/28 19:12:08;;;;;;;128.00;49.60;;;;;;;4.49;53.83;101720.30;671120;1260;139282;-84
2023/02/28 19:27:12;;;;;;;157.70;63.40;;;;;;;4.19;54.27;101727.70;673989;1256;138767;-83
2023/02/28 19:42:17;;;;;;;179.40;65.60;;;;;;;4.03;54.82;101715.80;671785;1260;138476;-85
2023/02/28 19:57:21;;;;;;;407.20;147.70;;;;;;;3.73;55.53;101709.30;670829;1276;138618;-85
2023/02/28 20:12:25;;;;;;;213.30;80.90;;;;;;;3.56;55.96;101721.35;672083;1272;138613;-86
2023/02/28 20:27:31;;;;;;;190.50;73.80;;;;;;;3.38;56.38;101713.34;672217;1260;138048;-85
2023/02/28 20:42:34;;;;;;;173.50;63.40;;;;;;;3.26;56.87;101722.75;673320;1261;140631;-85
2023/02/28 20:57:39;;;;;;;191.90;65.30;;;;;;;3.23;57.04;101714.90;672392;1257;138430;-87
2023/02/28 21:12:42;;;;;;;100.80;38.40;;;;;;;3.20;57.66;101698.39;671339;1262;138440;-86
2023/02/28 21:27:47;;;;;;;209.60;67.60;;;;;;;2.95;57.88;101705.96;671699;1259;138589;-85
2023/02/28 21:42:51;;;;;;;135.80;54.10;;;;;;;2.65;59.06;101702.80;672382;1262;138680;-85
2023/02/28 21:57:54;;;;;;;133.10;50.20;;;;;;;2.43;59.33;101669.46;672076;1260;138676;-86
2023/02/28 22:13:00;;;;;;;135.20;45.90;;;;;;;2.41;59.53;101666.06;672019;1260;139674;-86
2023/02/28 22:28:03;;;;;;;58.40;25.30;;;;;;;2.43;60.01;101658.59;672339;1257;140261;-85
2023/02/28 22:43:07;;;;;;;76.60;28.90;;;;;;;2.51;59.98;101666.79;669765;1261;138924;-85
2023/02/28 22:58:10;;;;;;;61.20;26.60;;;;;;;2.58;60.50;101669.52;671051;1260;139375;-84
2023/02/28 23:13:14;;;;;;;62.80;25.80;;;;;;;2.51;62.03;101659.72;671980;1261;139338;-84
2023/02/28 23:28:17;;;;;;;56.10;22.90;;;;;;;2.48;62.33;101659.63;669736;1260;139802;-85
2023/02/28 23:43:22;;;;;;;73.00;29.30;;;;;;;2.50;62.19;101655.27;670746;1260;139113;-84
2023/02/28 23:58:28;;;;;;;63.20;24.20;;;;;;;2.27;62.48;101653.23;671826;1273;138701;-83
